This is the latest recevied weather packets stored in our database for station/object K1ABC. If no packets are shown the sender has not sent any weather packets the latest 10 day(s).
| Time | Temp. | Humidity | Pressure | Rain* | Wind** | Luminosity | Snow |
|---|---|---|---|---|---|---|---|
| 1778108701 | 15.56° C | 92% | 1004.7 hPa | 0 mm | - | - | - |
| 1778106218 | 15.56° C | 92% | 1005 hPa | 3.05 mm | - | - | - |
| 1778105475 | 15.56° C | 91% | 1005.2 hPa | 0 mm | - | - | - |
| 1778104530 | 16.11° C | 91% | 1005.2 hPa | 1.02 mm | - | - | - |
| 1778104210 | 16.11° C | 91% | 1005.3 hPa | 1.27 mm | - | - | - |
| 1778103055 | 16.11° C | 90% | 1005.4 hPa | 1.02 mm | - | - | - |
| 1778102189 | 16.67° C | 91% | 1005.6 hPa | 1.52 mm | - | - | - |
| 1778101381 | 16.67° C | 91% | 1005.7 hPa | 1.27 mm | - | - | - |
| 1778101136 | 16.67° C | 91% | 1005.7 hPa | 1.52 mm | - | - | - |
| 1778100579 | 16.67° C | 90% | 1005.8 hPa | 1.52 mm | - | - | - |
| 1778100324 | 16.67° C | 90% | 1005.8 hPa | 1.52 mm | - | - | - |
| 1778099998 | 16.67° C | 89% | 1005.7 hPa | 1.52 mm | - | - | - |
| 1778099744 | 16.67° C | 89% | 1005.8 hPa | 2.03 mm | - | - | - |
| 1778098989 | 17.22° C | 87% | 1005.8 hPa | 2.54 mm | - | - | - |
| 1778098739 | 17.22° C | 87% | 1005.7 hPa | 7.87 mm | - | - | - |
| 1778098616 | 17.22° C | 87% | 1005.8 hPa | 1.02 mm | - | - | - |
| 1778097398 | 17.78° C | 84% | 1005.6 hPa | 1.27 mm | - | - | - |
| 1778097276 | 17.78° C | 85% | 1005.6 hPa | 1.27 mm | - | - | - |
| 1778096779 | 18.33° C | 82% | 1005.7 hPa | 1.27 mm | - | - | - |
| 1778096082 | 19.44° C | 81% | 1005.8 hPa | 1.02 mm | - | - | - |
| 1778095178 | 20° C | 79% | 1005.9 hPa | 0 mm | - | - | - |
| 1778095051 | 20° C | 77% | 1006 hPa | 0 mm | - | - | - |
| 1778094926 | 20° C | 76% | 1006 hPa | 0 mm | - | - | - |
| 1778094800 | 20° C | 74% | 1005.9 hPa | 0 mm | - | - | - |
| 1778092837 | 21.11° C | 69% | 1005.7 hPa | 0 mm | - | - | - |
* Rain latest hour (hover to see other rain measurements)
** Current wind speed in m/s (hover to see current wind gust speed)